Time;durP1;ratioP1;P1;durP2;ratioP2;P2;SDS_P1;SDS_P2;PMS_P1;PMS_P2;Temp;Humidity;BMP_temperature;BMP_pressure;BME280_temperature;BME280_humidity;BME280_pressure;Samples;Min_cycle;Max_cycle;Signal;HPM_P1;HPM_P2
2022/04/15 00:00:32;;;;;;;10.77;5.97;;;10.40;99.90;;;;;;5032994;28;20174;-59
2022/04/15 00:02:58;;;;;;;12.85;6.35;;;10.30;99.90;;;;;;5031803;28;20088;-58
2022/04/15 00:05:34;;;;;;;10.05;5.95;;;10.30;99.90;;;;;;5035932;28;20060;-58
2022/04/15 00:08:01;;;;;;;11.75;6.22;;;10.30;99.90;;;;;;5034318;28;20145;-59
2022/04/15 00:10:28;;;;;;;10.90;6.22;;;10.20;99.90;;;;;;5034315;28;20029;-58
2022/04/15 00:12:57;;;;;;;13.98;7.07;;;10.20;99.90;;;;;;5034304;28;20033;-59
2022/04/15 00:15:23;;;;;;;11.63;6.78;;;10.20;99.90;;;;;;5031580;28;20485;-59
2022/04/15 00:17:50;;;;;;;8.75;6.18;;;10.20;99.90;;;;;;5033211;28;20029;-59
2022/04/15 00:20:16;;;;;;;10.73;6.68;;;10.30;99.90;;;;;;5033982;28;20029;-59
2022/04/15 00:22:42;;;;;;;10.80;6.95;;;10.20;99.90;;;;;;5034161;28;20030;-58
2022/04/15 00:25:10;;;;;;;11.15;6.60;;;10.20;99.90;;;;;;5034025;28;20498;-58
2022/04/15 00:27:37;;;;;;;10.43;6.05;;;10.10;99.90;;;;;;5033774;28;20021;-59
2022/04/15 00:30:04;;;;;;;9.93;6.28;;;9.90;99.90;;;;;;5030573;28;20031;-59
2022/04/15 00:32:30;;;;;;;8.90;6.68;;;9.90;99.90;;;;;;5034798;28;20022;-59
2022/04/15 00:34:56;;;;;;;9.77;6.38;;;10.00;99.90;;;;;;5032454;28;20041;-59
2022/04/15 00:37:21;;;;;;;10.35;7.50;;;10.20;99.90;;;;;;5032772;28;20049;-59
2022/04/15 00:39:47;;;;;;;10.02;6.72;;;10.10;99.90;;;;;;5034140;28;20120;-58
2022/04/15 00:42:13;;;;;;;13.48;7.20;;;10.20;99.90;;;;;;5028924;28;20076;-58
2022/04/15 00:44:39;;;;;;;14.20;6.90;;;10.20;99.90;;;;;;5035494;28;20112;-58
2022/04/15 00:47:47;;;;;;;11.02;7.25;;;10.10;99.90;;;;;;5033019;28;20033;-58
2022/04/15 00:50:14;;;;;;;14.38;8.38;;;10.10;99.90;;;;;;5034768;28;20618;-59
2022/04/15 00:52:45;;;;;;;12.73;8.65;;;9.90;99.90;;;;;;5037854;28;20041;-59
2022/04/15 00:55:12;;;;;;;12.60;8.43;;;9.90;99.90;;;;;;5037935;28;20108;-59
2022/04/15 00:57:41;;;;;;;14.02;7.70;;;9.70;99.90;;;;;;5037158;28;20489;-59
2022/04/15 01:00:08;;;;;;;15.15;8.18;;;9.60;99.90;;;;;;5033479;28;20034;-60
2022/04/15 01:02:34;;;;;;;12.77;8.30;;;9.40;99.90;;;;;;5039720;28;20059;-59
2022/04/15 01:05:02;;;;;;;11.77;7.22;;;9.30;99.90;;;;;;5037535;28;20452;-59
2022/04/15 01:07:34;;;;;;;10.25;7.32;;;9.30;99.90;;;;;;5037621;28;20527;-59
2022/04/15 01:10:01;;;;;;;14.32;7.80;;;9.30;99.90;;;;;;5037362;28;20442;-58
2022/04/15 01:12:29;;;;;;;8.95;7.07;;;9.20;99.90;;;;;;5033977;28;20017;-59
2022/04/15 01:15:00;;;;;;;9.68;8.05;;;9.10;99.90;;;;;;5035524;28;20029;-59
2022/04/15 01:17:28;;;;;;;10.13;6.88;;;9.10;99.90;;;;;;5038129;28;20099;-59
2022/04/15 01:19:54;;;;;;;9.15;6.93;;;9.30;99.90;;;;;;5037246;28;20029;-59
2022/04/15 01:22:23;;;;;;;11.20;7.20;;;9.50;99.90;;;;;;5037384;28;20022;-59
2022/04/15 01:24:49;;;;;;;9.90;6.68;;;9.30;99.90;;;;;;5037107;28;20198;-59
2022/04/15 01:27:32;;;;;;;9.75;7.00;;;9.20;99.90;;;;;;5033953;28;20533;-59
2022/04/15 01:29:57;;;;;;;11.13;7.20;;;9.10;99.90;;;;;;5034151;28;20029;-59
2022/04/15 01:32:23;;;;;;;10.63;7.25;;;8.90;99.90;;;;;;5038856;28;20029;-59
2022/04/15 01:34:49;;;;;;;9.50;6.60;;;9.20;99.90;;;;;;5037166;28;20034;-59
2022/04/15 01:37:17;;;;;;;10.60;6.78;;;9.40;99.90;;;;;;5037310;28;20041;-58
2022/04/15 01:39:43;;;;;;;12.25;7.50;;;9.30;99.90;;;;;;5037105;28;20043;-59
2022/04/15 01:42:13;;;;;;;12.75;7.35;;;9.30;99.90;;;;;;5016967;28;20014;-59
2022/04/15 01:44:43;;;;;;;12.30;7.75;;;9.20;99.90;;;;;;5046323;28;20040;-59
2022/04/15 01:47:12;;;;;;;11.93;8.80;;;9.10;99.90;;;;;;5035562;28;20398;-59
2022/04/15 01:49:38;;;;;;;17.00;10.23;;;9.10;99.90;;;;;;5036800;28;20028;-59
2022/04/15 01:52:05;;;;;;;19.55;10.63;;;9.10;99.90;;;;;;5035677;28;20108;-59
2022/04/15 01:54:31;;;;;;;14.80;10.02;;;9.10;99.90;;;;;;5033542;28;20025;-59
2022/04/15 01:56:57;;;;;;;15.15;9.50;;;9.00;99.90;;;;;;5033798;28;20033;-58
2022/04/15 01:59:24;;;;;;;10.27;7.75;;;9.00;99.90;;;;;;5038767;28;20021;-59
2022/04/15 02:01:54;;;;;;;12.10;8.63;;;9.00;99.90;;;;;;5035804;28;20064;-59
2022/04/15 02:04:26;;;;;;;12.32;8.50;;;8.90;99.90;;;;;;5036066;28;20044;-58
2022/04/15 02:06:52;;;;;;;13.80;9.05;;;8.90;99.90;;;;;;5036485;28;20029;-59
2022/04/15 02:09:18;;;;;;;11.57;8.43;;;8.80;99.90;;;;;;5033084;28;20025;-59
2022/04/15 02:11:44;;;;;;;11.27;8.30;;;8.80;99.90;;;;;;5037037;28;20021;-59
2022/04/15 02:14:12;;;;;;;11.88;7.78;;;8.80;99.90;;;;;;5036680;28;20403;-59
2022/04/15 02:16:39;;;;;;;12.63;8.75;;;8.70;99.90;;;;;;5036310;28;20140;-59
2022/04/15 02:19:05;;;;;;;15.93;8.93;;;8.60;99.90;;;;;;5036322;28;20075;-59
2022/04/15 02:21:31;;;;;;;12.73;9.40;;;8.70;99.90;;;;;;5034535;28;20030;-59
2022/04/15 02:23:57;;;;;;;11.82;9.02;;;8.70;99.90;;;;;;5033391;28;20481;-59
2022/04/15 02:26:22;;;;;;;13.05;8.35;;;8.70;99.90;;;;;;5038073;28;20234;-58
2022/04/15 02:28:48;;;;;;;12.32;7.78;;;8.50;99.90;;;;;;5035719;28;20026;-58
2022/04/15 02:31:14;;;;;;;10.98;7.70;;;8.40;99.90;;;;;;5034933;28;20033;-59
2022/04/15 02:33:40;;;;;;;11.48;7.35;;;8.20;99.90;;;;;;5033760;28;20029;-58
2022/04/15 02:36:06;;;;;;;10.65;7.10;;;8.30;99.90;;;;;;5032221;28;20115;-58
2022/04/15 02:38:32;;;;;;;12.63;6.95;;;8.50;99.90;;;;;;5038059;28;20100;-59
2022/04/15 02:40:59;;;;;;;8.07;6.80;;;8.60;99.90;;;;;;5035759;28;20065;-59
2022/04/15 02:43:31;;;;;;;13.15;8.13;;;8.60;99.90;;;;;;5035444;28;20026;-59
2022/04/15 02:45:58;;;;;;;11.55;7.60;;;8.60;99.90;;;;;;5035877;28;20047;-59
2022/04/15 02:48:25;;;;;;;13.40;7.60;;;8.60;99.90;;;;;;5033288;28;20021;-59
2022/04/15 02:50:51;;;;;;;10.88;7.20;;;8.50;99.90;;;;;;5034432;28;20052;-59
2022/04/15 02:53:17;;;;;;;9.88;7.13;;;8.50;99.90;;;;;;5037008;28;20018;-59
2022/04/15 02:55:42;;;;;;;11.07;7.97;;;8.60;99.90;;;;;;5035376;28;20267;-58
2022/04/15 02:58:08;;;;;;;10.43;7.90;;;8.50;99.90;;;;;;5035112;28;20071;-58
2022/04/15 03:00:34;;;;;;;12.02;8.60;;;8.40;99.90;;;;;;5034628;28;20029;-59
2022/04/15 03:03:00;;;;;;;13.57;9.50;;;8.30;99.90;;;;;;5032426;28;20040;-59
2022/04/15 03:05:25;;;;;;;11.88;9.02;;;8.20;99.90;;;;;;5037333;28;20034;-59
2022/04/15 03:07:51;;;;;;;14.95;9.07;;;8.20;99.90;;;;;;5035595;28;20025;-58
2022/04/15 03:10:17;;;;;;;14.93;9.48;;;8.00;99.90;;;;;;5033921;28;20029;-59
2022/04/15 03:12:42;;;;;;;12.45;9.57;;;8.00;99.90;;;;;;5033418;28;20118;-59
2022/04/15 03:15:09;;;;;;;13.52;8.25;;;8.10;99.90;;;;;;5030695;28;20399;-59
2022/04/15 03:17:35;;;;;;;13.55;9.65;;;8.10;99.90;;;;;;5037097;28;20029;-59
2022/04/15 03:20:02;;;;;;;14.60;8.68;;;8.00;99.90;;;;;;5035025;28;20094;-59
2022/04/15 03:22:29;;;;;;;12.70;9.50;;;8.00;99.90;;;;;;5035085;28;20022;-59
2022/04/15 03:24:55;;;;;;;12.80;9.32;;;7.90;99.90;;;;;;5034623;28;20045;-59
2022/04/15 03:27:21;;;;;;;13.02;11.48;;;7.80;99.90;;;;;;5031614;28;20112;-59
2022/04/15 03:29:46;;;;;;;15.82;10.52;;;7.90;99.90;;;;;;5034860;28;20196;-59
2022/04/15 03:32:12;;;;;;;13.80;9.63;;;7.90;99.90;;;;;;5035393;28;20534;-59
2022/04/15 03:34:38;;;;;;;13.07;8.45;;;7.70;99.90;;;;;;5035192;28;20029;-59
2022/04/15 03:37:04;;;;;;;16.40;8.95;;;7.90;99.90;;;;;;5034631;28;20208;-59
2022/04/15 03:39:31;;;;;;;10.80;8.75;;;8.00;99.90;;;;;;5033100;28;20029;-61
2022/04/15 03:41:56;;;;;;;11.82;9.07;;;8.00;99.90;;;;;;5031674;28;20457;-59
2022/04/15 03:44:22;;;;;;;13.13;8.55;;;8.20;99.90;;;;;;5036696;28;20065;-59
2022/04/15 03:46:48;;;;;;;9.80;8.68;;;8.30;99.90;;;;;;5033513;28;20495;-59
2022/04/15 03:49:14;;;;;;;13.00;9.60;;;8.40;99.90;;;;;;5033581;28;20022;-59
2022/04/15 03:51:39;;;;;;;13.48;10.20;;;8.10;99.90;;;;;;5032616;28;20074;-59
2022/04/15 03:54:05;;;;;;;11.45;9.23;;;8.10;99.90;;;;;;5030692;28;20052;-59
2022/04/15 03:56:32;;;;;;;15.57;9.88;;;8.20;99.90;;;;;;5036146;28;20057;-59
2022/04/15 03:58:57;;;;;;;12.00;10.68;;;8.10;99.90;;;;;;5035024;28;20025;-59
2022/04/15 04:01:24;;;;;;;14.75;9.75;;;8.10;99.90;;;;;;5034464;28;20025;-59
2022/04/15 04:03:51;;;;;;;17.10;11.35;;;8.00;99.90;;;;;;5034241;28;20056;-59
2022/04/15 04:06:17;;;;;;;23.40;13.88;;;7.90;99.90;;;;;;5031093;28;20464;-60
2022/04/15 04:08:49;;;;;;;19.65;13.52;;;8.00;99.90;;;;;;5035139;28;20053;-60
2022/04/15 04:11:19;;;;;;;23.83;13.13;;;7.80;99.90;;;;;;5035024;28;20359;-59
2022/04/15 04:13:45;;;;;;;22.88;12.65;;;7.80;99.90;;;;;;5034310;28;20394;-59
2022/04/15 04:16:14;;;;;;;31.17;14.40;;;7.80;99.90;;;;;;5034285;28;20083;-59
2022/04/15 04:18:43;;;;;;;41.83;14.43;;;7.80;99.90;;;;;;5034329;28;20060;-59
2022/04/15 04:21:09;;;;;;;18.88;13.38;;;7.80;99.90;;;;;;5014521;28;20026;-59
2022/04/15 04:23:35;;;;;;;37.58;14.18;;;7.80;99.90;;;;;;5036026;28;20060;-59
2022/04/15 04:26:02;;;;;;;51.85;31.42;;;7.90;99.90;;;;;;5035448;28;20041;-59
2022/04/15 04:28:28;;;;;;;38.28;25.17;;;7.90;99.90;;;;;;5037007;28;20387;-59
2022/04/15 04:30:54;;;;;;;41.30;26.48;;;7.90;99.90;;;;;;5036871;28;20029;-59
2022/04/15 04:33:20;;;;;;;38.97;17.02;;;7.90;99.90;;;;;;5035336;28;20107;-59
2022/04/15 04:35:46;;;;;;;42.53;14.82;;;7.90;99.90;;;;;;5038607;28;20022;-59
2022/04/15 04:38:11;;;;;;;77.53;22.45;;;7.90;99.90;;;;;;5038733;28;20507;-59
2022/04/15 04:40:38;;;;;;;35.45;15.75;;;7.90;99.90;;;;;;5037695;28;20410;-59
2022/04/15 04:43:05;;;;;;;61.35;21.77;;;7.90;99.90;;;;;;5038177;28;20512;-59
2022/04/15 04:45:32;;;;;;;35.35;18.60;;;7.80;99.90;;;;;;5036454;28;20102;-59
2022/04/15 04:48:03;;;;;;;27.00;14.90;;;7.70;99.90;;;;;;5034848;28;20096;-59
2022/04/15 04:50:30;;;;;;;42.35;18.77;;;7.90;99.90;;;;;;5040231;28;20099;-59
2022/04/15 04:52:56;;;;;;;26.63;16.70;;;7.90;99.90;;;;;;5037921;28;20457;-59
2022/04/15 04:55:22;;;;;;;31.30;19.40;;;7.90;99.90;;;;;;5037476;28;20025;-59
2022/04/15 04:57:48;;;;;;;36.55;22.73;;;7.80;99.90;;;;;;5037733;28;20390;-59
2022/04/15 05:00:15;;;;;;;24.33;18.42;;;7.70;99.90;;;;;;5033822;28;20057;-59
2022/04/15 05:02:41;;;;;;;36.08;18.20;;;7.80;99.90;;;;;;5038457;28;20017;-58
2022/04/15 05:05:08;;;;;;;32.08;20.77;;;7.70;99.90;;;;;;5036905;28;20069;-58
2022/04/15 05:07:35;;;;;;;28.35;18.00;;;7.70;99.90;;;;;;5036116;28;20403;-59
2022/04/15 05:10:01;;;;;;;22.40;14.52;;;7.70;99.90;;;;;;5035530;28;20033;-59
2022/04/15 05:12:27;;;;;;;25.70;12.40;;;7.80;99.90;;;;;;5035246;28;20030;-59
2022/04/15 05:14:53;;;;;;;16.05;13.25;;;7.90;99.90;;;;;;5035685;28;20021;-58
2022/04/15 05:17:19;;;;;;;22.23;13.63;;;7.90;99.90;;;;;;5039452;28;20021;-59
2022/04/15 05:19:45;;;;;;;17.27;12.52;;;7.80;99.90;;;;;;5037188;28;20030;-59
2022/04/15 05:22:11;;;;;;;18.35;13.13;;;7.90;99.90;;;;;;5037015;28;20033;-59
2022/04/15 05:24:37;;;;;;;18.20;11.40;;;8.00;99.90;;;;;;5036388;28;20045;-59
2022/04/15 05:27:04;;;;;;;32.17;16.67;;;8.00;99.90;;;;;;5033398;28;20040;-59
2022/04/15 05:29:30;;;;;;;37.63;17.40;;;7.90;99.90;;;;;;5039023;28;20674;-58
2022/04/15 05:31:56;;;;;;;65.03;21.42;;;7.90;99.90;;;;;;5037296;28;20037;-58
2022/04/15 05:34:22;;;;;;;91.20;20.98;;;8.00;99.90;;;;;;5036823;28;20479;-59
2022/04/15 05:36:47;;;;;;;99.35;25.48;;;8.00;99.90;;;;;;5035262;28;20071;-59
2022/04/15 05:39:13;;;;;;;72.97;21.08;;;8.00;99.90;;;;;;5032584;28;20029;-59
2022/04/15 05:41:39;;;;;;;72.75;18.75;;;8.00;99.90;;;;;;5038753;28;20034;-59
2022/04/15 05:44:05;;;;;;;54.08;20.02;;;8.10;99.90;;;;;;5035406;28;20065;-59
2022/04/15 05:46:31;;;;;;;67.88;17.23;;;8.20;99.90;;;;;;5035300;28;20107;-59
2022/04/15 05:48:57;;;;;;;71.65;19.83;;;8.30;99.90;;;;;;5035517;28;20029;-59
2022/04/15 05:51:22;;;;;;;91.22;22.90;;;8.30;99.90;;;;;;5034124;28;20025;-59
2022/04/15 05:53:48;;;;;;;104.45;21.80;;;8.30;99.90;;;;;;5035625;28;20025;-59
2022/04/15 05:56:14;;;;;;;68.90;19.58;;;8.30;99.90;;;;;;5036507;28;20075;-59
2022/04/15 05:58:40;;;;;;;112.10;22.60;;;8.40;99.90;;;;;;5036778;28;20052;-58
2022/04/15 06:01:09;;;;;;;38.70;12.43;;;8.40;99.90;;;;;;5036405;28;20125;-60
2022/04/15 06:03:35;;;;;;;52.85;14.80;;;8.60;99.90;;;;;;5035408;28;20017;-59
2022/04/15 06:06:01;;;;;;;49.42;16.83;;;8.80;99.90;;;;;;5032877;28;20041;-59
2022/04/15 06:08:27;;;;;;;33.50;12.50;;;8.90;99.90;;;;;;5038561;28;20022;-59
2022/04/15 06:10:53;;;;;;;17.38;11.70;;;8.80;99.90;;;;;;5036659;28;20143;-59
2022/04/15 06:13:22;;;;;;;24.35;11.85;;;8.90;99.90;;;;;;5035035;28;20017;-59
2022/04/15 06:15:53;;;;;;;24.13;9.98;;;9.10;99.90;;;;;;5036222;28;20037;-58
2022/04/15 06:18:22;;;;;;;24.67;11.98;;;9.20;99.90;;;;;;5032909;28;20018;-59
2022/04/15 06:20:48;;;;;;;38.75;13.32;;;9.30;99.90;;;;;;5035126;28;20105;-59
2022/04/15 06:23:15;;;;;;;34.95;13.27;;;9.20;99.90;;;;;;5036952;28;20148;-59
2022/04/15 06:25:41;;;;;;;52.65;11.30;;;9.40;99.90;;;;;;5034470;28;20044;-59
2022/04/15 06:28:08;;;;;;;27.33;13.13;;;9.60;99.90;;;;;;5033598;28;20510;-59
2022/04/15 06:30:34;;;;;;;18.73;10.73;;;9.70;99.90;;;;;;5034745;28;20127;-59
2022/04/15 06:33:00;;;;;;;19.73;10.15;;;9.80;99.90;;;;;;5032818;28;20566;-60
2022/04/15 06:35:25;;;;;;;23.77;11.10;;;10.00;99.90;;;;;;5037364;28;20078;-59
2022/04/15 06:37:51;;;;;;;19.20;10.20;;;10.10;99.90;;;;;;5035817;28;20050;-59
2022/04/15 06:40:17;;;;;;;15.43;9.30;;;10.20;99.90;;;;;;5035798;28;20025;-59
2022/04/15 06:42:43;;;;;;;16.63;9.07;;;10.40;99.90;;;;;;5035537;28;20033;-59
2022/04/15 06:45:13;;;;;;;23.55;9.10;;;10.50;99.90;;;;;;5031419;28;20046;-59
2022/04/15 06:47:39;;;;;;;15.32;9.25;;;10.70;99.90;;;;;;5045054;28;20025;-59
2022/04/15 06:50:06;;;;;;;19.65;9.38;;;10.70;99.90;;;;;;5033171;28;20083;-59
2022/04/15 06:52:32;;;;;;;16.67;10.07;;;10.60;99.90;;;;;;5035581;28;20127;-59
2022/04/15 06:54:58;;;;;;;42.25;9.90;;;10.80;99.90;;;;;;5035432;28;20048;-59
2022/04/15 06:57:23;;;;;;;22.27;10.00;;;10.80;99.90;;;;;;5032815;28;20569;-59
2022/04/15 06:59:49;;;;;;;24.23;10.65;;;10.90;99.90;;;;;;5034290;28;20079;-59
2022/04/15 07:02:15;;;;;;;35.30;9.93;;;10.90;99.90;;;;;;5035074;28;20026;-59
2022/04/15 07:04:41;;;;;;;27.73;9.88;;;11.00;99.90;;;;;;5033798;28;20045;-59
2022/04/15 07:07:06;;;;;;;24.67;11.13;;;11.10;99.90;;;;;;5033544;28;20036;-59
2022/04/15 07:09:32;;;;;;;37.95;12.52;;;11.30;99.90;;;;;;5032635;28;20013;-59
2022/04/15 07:11:58;;;;;;;52.45;11.57;;;11.20;99.90;;;;;;5032085;28;20044;-59
2022/04/15 07:14:24;;;;;;;37.13;13.60;;;11.30;99.90;;;;;;5037109;28;20047;-60
2022/04/15 07:16:50;;;;;;;41.22;11.90;;;11.40;99.90;;;;;;5035154;28;20021;-59
2022/04/15 07:19:15;;;;;;;29.77;11.00;;;11.60;99.90;;;;;;5034595;28;20079;-59
2022/04/15 07:21:43;;;;;;;33.83;13.07;;;11.80;99.90;;;;;;5034701;28;20032;-59
2022/04/15 07:24:09;;;;;;;38.35;12.27;;;12.00;99.90;;;;;;5014703;28;20041;-59
2022/04/15 07:26:35;;;;;;;35.88;12.35;;;12.00;99.90;;;;;;5036738;28;20037;-58
2022/04/15 07:29:01;;;;;;;26.33;12.30;;;12.10;99.90;;;;;;5034871;28;20021;-59
2022/04/15 07:31:27;;;;;;;27.95;12.57;;;12.10;99.90;;;;;;5034589;28;20025;-59
2022/04/15 07:33:53;;;;;;;52.97;13.15;;;12.40;99.90;;;;;;5032964;28;20184;-59
2022/04/15 07:39:14;;;;;;;34.60;13.05;;;12.40;99.90;;;;;;5031794;28;20026;-59
2022/04/15 07:41:41;;;;;;;37.63;12.15;;;12.70;99.90;;;;;;5076907;28;20174;-59
2022/04/15 07:44:08;;;;;;;50.67;12.70;;;12.80;99.90;;;;;;5034762;28;20021;-59
2022/04/15 07:46:35;;;;;;;33.72;11.60;;;13.00;99.90;;;;;;5033327;28;20104;-59
2022/04/15 07:49:01;;;;;;;40.88;11.90;;;13.40;99.90;;;;;;5034038;28;20025;-58
2022/04/15 07:51:27;;;;;;;35.08;11.68;;;13.20;99.90;;;;;;5032184;28;20512;-59
2022/04/15 07:53:53;;;;;;;14.93;10.80;;;13.40;99.90;;;;;;5032545;28;20025;-59
2022/04/15 07:56:19;;;;;;;19.27;10.88;;;13.60;99.90;;;;;;5036034;28;20095;-59
2022/04/15 07:58:44;;;;;;;15.27;10.52;;;13.60;99.90;;;;;;5034670;28;20033;-59
2022/04/15 08:01:10;;;;;;;12.50;11.20;;;13.70;99.90;;;;;;5034398;28;20063;-59
2022/04/15 08:03:37;;;;;;;15.93;9.90;;;13.90;99.90;;;;;;5033182;28;20470;-60
2022/04/15 08:06:03;;;;;;;21.88;11.32;;;14.10;99.90;;;;;;5030773;28;20041;-59
2022/04/15 08:08:29;;;;;;;10.75;9.75;;;13.90;99.90;;;;;;5036309;28;20049;-58
2022/04/15 08:10:56;;;;;;;11.38;9.65;;;13.90;99.90;;;;;;5034258;28;20060;-59
2022/04/15 08:13:22;;;;;;;10.68;9.57;;;14.10;99.90;;;;;;5034155;28;20193;-59
2022/04/15 08:15:53;;;;;;;20.13;10.55;;;14.30;99.90;;;;;;5034162;28;20040;-59
2022/04/15 08:18:23;;;;;;;13.32;11.95;;;14.30;99.90;;;;;;5030465;28;20108;-59
2022/04/15 08:20:50;;;;;;;15.07;11.07;;;14.00;99.90;;;;;;5033157;28;20086;-59
2022/04/15 08:23:17;;;;;;;15.45;11.70;;;14.20;99.90;;;;;;5033875;28;20200;-59
2022/04/15 08:25:44;;;;;;;13.57;10.73;;;14.20;99.90;;;;;;5031065;28;20505;-59
2022/04/15 08:28:10;;;;;;;11.77;10.43;;;14.40;99.90;;;;;;5034019;28;20611;-59
2022/04/15 08:30:37;;;;;;;10.60;9.60;;;14.80;99.90;;;;;;5032847;28;20029;-59
2022/04/15 08:33:05;;;;;;;10.40;9.32;;;15.10;99.90;;;;;;5030539;28;20087;-59
2022/04/15 08:35:32;;;;;;;11.75;10.57;;;15.20;99.90;;;;;;5035856;28;20025;-59
2022/04/15 08:37:58;;;;;;;13.68;11.35;;;14.90;99.90;;;;;;5033634;28;20423;-59
2022/04/15 08:40:27;;;;;;;13.07;11.77;;;15.00;99.90;;;;;;5033919;28;20033;-59
2022/04/15 08:42:53;;;;;;;12.85;11.60;;;15.00;99.90;;;;;;5034279;28;20041;-59
2022/04/15 08:45:24;;;;;;;14.07;11.68;;;15.20;99.90;;;;;;5030490;28;20037;-59
2022/04/15 08:47:52;;;;;;;13.65;11.80;;;15.30;99.90;;;;;;5032462;28;20022;-59
2022/04/15 08:50:17;;;;;;;12.88;11.40;;;15.50;99.90;;;;;;5035219;28;20113;-59
2022/04/15 08:52:45;;;;;;;14.18;12.65;;;15.90;99.90;;;;;;5033925;28;20176;-59
2022/04/15 08:55:11;;;;;;;13.48;12.07;;;16.00;99.90;;;;;;5033555;28;20033;-59
2022/04/15 08:57:37;;;;;;;12.77;11.45;;;15.80;99.90;;;;;;5033228;28;20025;-59
2022/04/15 09:00:05;;;;;;;13.48;12.07;;;16.10;99.90;;;;;;5029492;28;20029;-58
2022/04/15 09:02:32;;;;;;;12.77;11.05;;;16.00;99.90;;;;;;5034849;28;20030;-59
2022/04/15 09:05:02;;;;;;;13.30;11.90;;;16.00;99.90;;;;;;5032083;28;20092;-59
2022/04/15 09:07:29;;;;;;;13.48;11.05;;;16.10;99.90;;;;;;5033516;28;20486;-59
2022/04/15 09:09:57;;;;;;;11.85;10.60;;;16.20;99.90;;;;;;5033465;28;20486;-59
2022/04/15 09:12:29;;;;;;;11.63;10.27;;;16.60;99.90;;;;;;5032581;28;20028;-59
2022/04/15 09:15:15;;;;;;;11.00;9.70;;;16.90;99.90;;;;;;5034875;28;20034;-59
2022/04/15 09:17:52;;;;;;;9.60;8.70;;;17.70;99.90;;;;;;5046782;28;20028;-59
2022/04/15 09:20:19;;;;;;;9.80;8.80;;;18.10;99.90;;;;;;5038717;28;20542;-59
2022/04/15 09:22:46;;;;;;;9.30;8.45;;;18.80;99.90;;;;;;5037162;28;20036;-59
2022/04/15 09:25:13;;;;;;;10.00;8.45;;;18.80;99.90;;;;;;5037277;28;20037;-59
2022/04/15 09:27:39;;;;;;;9.10;8.20;;;19.20;99.90;;;;;;5036384;28;20058;-59
2022/04/15 09:30:05;;;;;;;8.77;7.88;;;19.70;99.90;;;;;;5032756;28;20029;-59
2022/04/15 09:32:31;;;;;;;9.27;7.97;;;19.70;99.90;;;;;;5038931;28;20017;-59
2022/04/15 09:34:57;;;;;;;9.70;7.68;;;22.20;99.90;;;;;;5037160;28;20029;-59
2022/04/15 09:37:25;;;;;;;7.95;6.90;;;22.90;99.90;;;;;;5036532;28;20048;-59
2022/04/15 09:40:18;;;;;;;7.70;6.47;;;23.40;99.90;;;;;;5035320;28;20029;-59
2022/04/15 09:42:52;;;;;;;7.28;6.13;;;24.60;99.90;;;;;;5035196;28;20060;-60
2022/04/15 09:45:25;;;;;;;6.38;5.78;;;24.10;99.90;;;;;;5016961;28;20083;-59
2022/04/15 09:47:52;;;;;;;;;;;25.70;99.90;;;;;;5035982;28;20470;-59
2022/04/15 09:50:30;;;;;;;7.00;5.88;;;25.60;99.90;;;;;;5038112;28;20054;-59
2022/04/15 09:53:16;;;;;;;7.47;6.78;;;;;;;;;;5036813;28;20121;-59
2022/04/15 09:55:47;;;;;;;13.20;6.40;;;26.20;99.90;;;;;;5036841;28;20029;-59
2022/04/15 09:58:20;;;;;;;6.65;5.50;;;25.40;99.90;;;;;;5036080;28;20112;-59
2022/04/15 10:00:48;;;;;;;6.80;5.70;;;26.10;99.90;;;;;;5036726;28;20017;-59
2022/04/15 10:03:21;;;;;;;7.43;5.57;;;26.50;99.90;;;;;;5032534;28;20442;-60
2022/04/15 10:05:49;;;;;;;6.95;5.38;;;26.90;99.90;;;;;;5036415;28;20041;-59
2022/04/15 10:08:16;;;;;;;6.15;4.88;;;26.60;99.90;;;;;;5037437;28;20021;-59
2022/04/15 10:10:42;;;;;;;6.75;5.13;;;26.60;99.90;;;;;;5036083;28;20042;-60
2022/04/15 10:13:08;;;;;;;7.07;5.38;;;27.00;99.60;;;;;;5035769;28;20117;-60
2022/04/15 10:15:37;;;;;;;5.75;5.20;;;26.80;99.80;;;;;;5034805;28;20025;-60
2022/04/15 10:18:04;;;;;;;5.28;4.70;;;27.30;99.40;;;;;;5032881;28;20018;-60
2022/04/15 10:20:31;;;;;;;6.07;5.40;;;26.20;99.90;;;;;;5036986;28;20053;-60
2022/04/15 10:23:02;;;;;;;9.30;5.28;;;26.60;99.00;;;;;;5033790;28;20037;-60
2022/04/15 10:25:29;;;;;;;7.63;4.90;;;26.70;98.80;;;;;;5035901;28;20037;-60
2022/04/15 10:28:37;;;;;;;5.95;5.10;;;27.40;98.60;;;;;;5035605;28;20469;-61
2022/04/15 10:31:14;;;;;;;5.55;5.00;;;26.00;99.90;;;;;;5035742;28;20037;-61
2022/04/15 10:33:41;;;;;;;7.97;4.90;;;27.50;98.10;;;;;;5035307;28;20044;-60
2022/04/15 10:36:23;;;;;;;8.15;5.57;;;27.20;97.50;;;;;;5031664;28;20371;-59
2022/04/15 10:39:07;;;;;;;7.07;5.32;;;26.70;97.50;;;;;;5045774;28;20037;-60
2022/04/15 10:42:04;;;;;;;5.72;5.13;;;27.30;98.40;;;;;;5037138;28;20026;-61
2022/04/15 10:44:40;;;;;;;6.20;5.40;;;27.70;97.90;;;;;;5036378;28;20041;-60
2022/04/15 10:47:26;;;;;;;7.00;5.63;;;28.00;96.30;;;;;;5034306;28;20037;-60
2022/04/15 10:50:06;;;;;;;7.45;4.57;;;28.10;97.00;;;;;;5035264;28;20494;-60
2022/04/15 10:52:34;;;;;;;5.47;4.28;;;27.60;97.10;;;;;;5035367;28;20049;-60
2022/04/15 10:55:08;;;;;;;7.03;4.85;;;28.30;95.70;;;;;;5035294;28;20078;-60
2022/04/15 10:57:40;;;;;;;4.97;4.10;;;28.60;95.40;;;;;;5032836;28;20056;-60
2022/04/15 11:03:29;;;;;;;4.25;3.70;;;28.40;95.50;;;;;;5046800;28;20049;-61
2022/04/15 11:06:04;;;;;;;4.72;3.38;;;27.40;95.10;;;;;;5045158;28;20029;-61
2022/04/15 11:08:47;;;;;;;4.85;3.38;;;27.60;95.70;;;;;;5035996;28;20552;-61
2022/04/15 11:11:13;;;;;;;;;;;27.70;95.30;;;;;;5036091;28;20025;-60
2022/04/15 11:13:43;;;;;;;4.78;3.13;;;28.00;94.90;;;;;;5035348;28;19971;-60
2022/04/15 11:16:12;;;;;;;4.38;3.00;;;27.60;95.00;;;;;;5034949;28;20026;-60
2022/04/15 11:18:53;;;;;;;7.00;3.13;;;28.30;94.70;;;;;;5034100;28;20032;-60
2022/04/15 11:21:29;;;;;;;7.38;3.30;;;28.60;93.80;;;;;;5031654;28;20037;-60
2022/04/15 11:24:02;;;;;;;4.95;3.45;;;26.30;94.30;;;;;;5032952;28;20383;-60
2022/04/15 11:26:29;;;;;;;4.95;2.85;;;25.50;96.50;;;;;;5034819;28;20487;-60
2022/04/15 11:28:57;;;;;;;5.68;3.20;;;27.80;94.90;;;;;;5035153;28;20394;-60
2022/04/15 11:31:33;;;;;;;3.78;2.63;;;27.30;94.30;;;;;;5034680;28;20033;-60
2022/04/15 11:34:08;;;;;;;6.38;3.10;;;27.90;93.70;;;;;;5034553;28;20114;-60
2022/04/15 11:36:39;;;;;;;5.25;3.08;;;27.00;93.60;;;;;;5031708;28;20040;-60
2022/04/15 11:39:09;;;;;;;6.10;2.90;;;25.60;94.40;;;;;;5030027;28;20120;-61
2022/04/15 11:41:35;;;;;;;5.97;3.22;;;26.40;94.60;;;;;;5036271;28;20041;-60
2022/04/15 11:44:05;;;;;;;3.35;2.50;;;27.40;92.90;;;;;;5034093;28;20025;-60
2022/04/15 11:47:15;;;;;;;4.68;2.80;;;27.40;92.20;;;;;;5034434;28;20518;-60
2022/04/15 11:49:42;;;;;;;4.03;2.60;;;27.30;93.10;;;;;;5034632;28;20394;-60
2022/04/15 11:52:08;;;;;;;5.00;2.90;;;27.10;93.10;;;;;;5034090;28;20029;-61
2022/04/15 11:54:36;;;;;;;6.32;2.67;;;27.30;92.50;;;;;;5032637;28;20015;-60
2022/04/15 11:57:03;;;;;;;6.80;3.30;;;26.40;92.60;;;;;;5030929;28;20041;-60
2022/04/15 11:59:37;;;;;;;4.55;3.00;;;25.50;93.30;;;;;;5036125;28;20091;-60
2022/04/15 12:02:03;;;;;;;5.10;2.90;;;25.20;93.30;;;;;;5034095;28;20021;-60
2022/04/15 12:04:29;;;;;;;5.15;3.30;;;25.30;93.30;;;;;;5034054;28;20064;-60
2022/04/15 12:06:54;;;;;;;4.30;2.97;;;26.20;92.60;;;;;;5034109;28;20021;-60
2022/04/15 12:09:20;;;;;;;4.22;3.08;;;25.70;92.90;;;;;;5030477;28;20107;-61
2022/04/15 12:11:46;;;;;;;4.78;2.90;;;25.80;92.50;;;;;;5034707;28;20026;-60
2022/04/15 12:14:13;;;;;;;3.45;3.03;;;26.30;92.30;;;;;;5034574;28;20033;-60
2022/04/15 12:16:40;;;;;;;5.25;3.08;;;25.90;93.00;;;;;;5032652;28;20053;-60
2022/04/15 12:19:07;;;;;;;4.85;2.78;;;26.80;92.80;;;;;;5032463;28;20120;-60
2022/04/15 12:21:34;;;;;;;4.68;2.65;;;26.20;92.10;;;;;;5032808;28;20032;-60
2022/04/15 12:24:01;;;;;;;4.85;2.70;;;25.50;92.80;;;;;;5030430;28;20026;-60
2022/04/15 12:26:27;;;;;;;6.32;2.63;;;25.30;92.40;;;;;;5035805;28;20509;-60
2022/04/15 12:31:46;;;;;;;5.45;3.38;;;26.60;92.90;;;;;;5033775;28;20099;-60
2022/04/15 12:34:12;;;;;;;5.78;3.17;;;27.10;92.00;;;;;;5033850;28;20049;-60
2022/04/15 12:36:43;;;;;;;8.90;2.70;;;26.70;92.70;;;;;;5033178;28;20477;-61
2022/04/15 12:39:09;;;;;;;6.47;2.95;;;26.50;91.50;;;;;;5029128;28;20081;-60
2022/04/15 12:41:45;;;;;;;3.50;2.80;;;26.90;91.50;;;;;;5035730;28;20025;-60
2022/04/15 12:44:27;;;;;;;4.95;3.10;;;26.90;92.10;;;;;;5033258;28;20025;-60
2022/04/15 12:47:00;;;;;;;4.78;2.90;;;27.70;91.10;;;;;;5034963;28;20503;-60
2022/04/15 12:49:32;;;;;;;8.35;3.80;;;27.60;90.90;;;;;;5037561;28;20104;-61
2022/04/15 12:52:11;;;;;;;3.95;3.45;;;26.40;91.40;;;;;;5038062;28;20044;-60
2022/04/15 12:54:54;;;;;;;5.95;4.32;;;27.00;92.20;;;;;;5035232;28;20029;-60